Time;durP1;ratioP1;P1;durP2;ratioP2;P2;SDS_P1;SDS_P2;PMS_P1;PMS_P2;Temp;Humidity;BMP_temperature;BMP_pressure;BME280_temperature;BME280_humidity;BME280_pressure;Samples;Min_cycle;Max_cycle;Signal;HPM_P1;HPM_P2
2023/10/07 00:01:48;;;;;;;8.95;1.50;;;18.60;99.90;;;;;;5034942;28;20216;-81
2023/10/07 00:04:22;;;;;;;6.88;1.55;;;18.60;99.90;;;;;;5036247;28;20554;-81
2023/10/07 00:06:53;;;;;;;5.18;1.20;;;18.50;99.90;;;;;;5032624;28;20205;-81
2023/10/07 00:09:24;;;;;;;4.38;1.30;;;18.40;99.90;;;;;;5025064;28;20198;-81
2023/10/07 00:11:59;;;;;;;2.55;1.17;;;18.60;99.90;;;;;;5036668;28;20223;-80
2023/10/07 00:14:30;;;;;;;10.63;1.40;;;18.70;99.90;;;;;;5034995;28;20252;-81
2023/10/07 00:17:05;;;;;;;5.55;1.30;;;18.80;99.90;;;;;;5035310;28;20259;-78
2023/10/07 00:19:40;;;;;;;5.38;1.40;;;18.70;99.90;;;;;;5034534;28;20227;-78
2023/10/07 00:22:13;;;;;;;5.97;1.40;;;18.90;99.90;;;;;;5028775;28;20209;-79
2023/10/07 00:24:48;;;;;;;6.00;1.17;;;19.10;99.90;;;;;;5028384;28;20194;-80
2023/10/07 00:27:30;;;;;;;4.72;0.98;;;19.20;99.90;;;;;;5033104;28;20212;-81
2023/10/07 00:30:06;;;;;;;8.00;1.55;;;19.30;99.90;;;;;;5034483;28;20572;-80
2023/10/07 00:32:38;;;;;;;3.25;1.23;;;19.30;99.90;;;;;;5033055;28;20450;-81
2023/10/07 00:35:11;;;;;;;4.03;1.13;;;19.30;99.90;;;;;;5025798;28;20246;-81
2023/10/07 00:37:44;;;;;;;5.43;1.20;;;19.20;99.90;;;;;;5017207;28;20200;-81
2023/10/07 00:40:30;;;;;;;5.30;1.20;;;19.10;99.90;;;;;;5033450;28;20205;-81
2023/10/07 00:43:07;;;;;;;6.88;1.30;;;19.20;99.90;;;;;;5033360;28;20220;-82
2023/10/07 00:45:40;;;;;;;3.97;1.25;;;19.30;99.90;;;;;;5033436;28;20239;-80
2023/10/07 00:48:13;;;;;;;3.95;1.15;;;19.40;99.90;;;;;;5028785;28;20288;-83
2023/10/07 00:50:50;;;;;;;4.75;1.33;;;19.50;99.90;;;;;;5028046;28;20270;-82
2023/10/07 00:53:29;;;;;;;8.13;1.40;;;19.40;99.90;;;;;;5038172;28;20283;-80
2023/10/07 00:56:04;;;;;;;7.47;1.15;;;19.50;99.90;;;;;;5029908;28;20213;-80
2023/10/07 00:58:36;;;;;;;4.88;1.60;;;19.60;99.90;;;;;;5019381;28;20194;-82
2023/10/07 01:01:09;;;;;;;7.38;1.88;;;19.70;99.90;;;;;;5014800;28;20367;-81
2023/10/07 01:03:49;;;;;;;5.78;1.52;;;19.70;99.90;;;;;;5025833;28;20205;-82
2023/10/07 01:06:29;;;;;;;5.80;1.45;;;19.80;99.90;;;;;;5033023;28;20284;-81
2023/10/07 01:09:14;;;;;;;4.57;1.83;;;19.90;99.90;;;;;;5031901;28;20209;-81
2023/10/07 01:11:49;;;;;;;6.00;1.58;;;19.80;99.90;;;;;;5032504;28;20251;-81
2023/10/07 01:14:22;;;;;;;6.78;1.00;;;19.80;99.90;;;;;;5028911;28;20228;-81
2023/10/07 01:16:53;;;;;;;4.85;1.40;;;19.70;99.90;;;;;;5032970;28;20661;-81
2023/10/07 01:19:36;;;;;;;5.22;1.35;;;19.70;99.90;;;;;;5046094;28;20653;-81
2023/10/07 01:22:11;;;;;;;5.40;1.10;;;19.60;99.90;;;;;;5033658;28;20201;-82
2023/10/07 01:24:49;;;;;;;4.50;1.13;;;19.70;99.90;;;;;;5033228;28;20595;-81
2023/10/07 01:27:21;;;;;;;2.42;0.98;;;19.90;99.90;;;;;;5016345;28;20202;-82
2023/10/07 01:29:59;;;;;;;4.65;1.15;;;19.90;99.90;;;;;;5012520;28;20212;-81
2023/10/07 01:32:33;;;;;;;5.95;1.40;;;19.90;99.90;;;;;;5016911;28;20755;-80
2023/10/07 01:35:11;;;;;;;3.65;1.15;;;20.10;99.90;;;;;;5029364;28;20229;-81
2023/10/07 01:37:43;;;;;;;5.20;1.58;;;20.30;99.90;;;;;;5030952;28;20667;-80
2023/10/07 01:40:19;;;;;;;7.60;2.30;;;20.40;99.90;;;;;;5032069;28;20255;-80
2023/10/07 01:42:52;;;;;;;4.72;1.63;;;20.50;99.90;;;;;;5032414;28;20554;-82
2023/10/07 01:45:34;;;;;;;4.05;1.45;;;20.80;99.90;;;;;;5033224;28;20243;-82
2023/10/07 01:48:07;;;;;;;4.65;1.40;;;21.00;99.90;;;;;;5032990;28;20241;-82
2023/10/07 01:50:43;;;;;;;5.25;1.30;;;21.30;99.90;;;;;;5031748;28;20658;-81
2023/10/07 01:53:16;;;;;;;3.95;1.30;;;21.20;99.90;;;;;;5034608;28;20337;-83
2023/10/07 01:55:49;;;;;;;7.60;1.40;;;21.10;99.90;;;;;;5031003;28;20224;-82
2023/10/07 01:58:22;;;;;;;7.57;1.42;;;21.10;99.90;;;;;;5022250;28;20204;-83
2023/10/07 02:00:57;;;;;;;5.45;1.40;;;20.90;99.90;;;;;;5034026;28;20251;-83
2023/10/07 02:03:29;;;;;;;6.03;1.17;;;20.80;99.90;;;;;;5032317;28;20250;-83
2023/10/07 02:06:05;;;;;;;4.45;1.15;;;20.70;99.90;;;;;;5031556;28;20680;-82
2023/10/07 02:08:37;;;;;;;4.95;1.23;;;20.70;99.90;;;;;;5025097;28;20202;-83
2023/10/07 02:11:10;;;;;;;6.78;1.42;;;20.70;99.90;;;;;;5012614;28;20213;-82
2023/10/07 02:13:45;;;;;;;7.53;2.30;;;20.40;99.90;;;;;;5014699;28;20218;-82
2023/10/07 02:16:17;;;;;;;4.03;1.33;;;20.40;99.90;;;;;;5017682;28;20209;-83
2023/10/07 02:18:49;;;;;;;6.10;1.63;;;20.30;99.90;;;;;;5023675;28;20220;-83
2023/10/07 02:21:24;;;;;;;2.65;0.90;;;20.40;99.90;;;;;;5031169;28;20209;-83
2023/10/07 02:23:55;;;;;;;6.32;1.50;;;20.30;99.90;;;;;;5019683;28;20197;-82
2023/10/07 02:26:28;;;;;;;4.28;1.13;;;20.40;99.90;;;;;;5016963;28;20198;-83
2023/10/07 02:29:06;;;;;;;5.80;1.58;;;20.60;99.90;;;;;;5016093;28;20364;-84
2023/10/07 02:31:45;;;;;;;6.50;1.60;;;20.90;99.90;;;;;;5014830;28;20202;-84
2023/10/07 02:34:28;;;;;;;4.90;1.25;;;21.10;99.90;;;;;;5015522;28;20240;-82
2023/10/07 02:37:11;;;;;;;5.35;1.40;;;21.40;99.90;;;;;;5034164;28;20201;-82
2023/10/07 02:39:56;;;;;;;4.60;1.40;;;21.50;99.90;;;;;;5022436;28;20206;-83
2023/10/07 02:42:30;;;;;;;7.05;1.40;;;21.40;99.90;;;;;;5022219;28;20194;-82
2023/10/07 02:45:28;;;;;;;3.92;1.63;;;21.70;99.90;;;;;;5029713;28;20619;-82
2023/10/07 02:48:00;;;;;;;7.00;1.50;;;21.80;99.90;;;;;;5025747;28;20660;-81
2023/10/07 02:50:31;;;;;;;5.05;1.33;;;21.90;99.90;;;;;;5037543;28;20685;-81
2023/10/07 02:53:10;;;;;;;4.28;1.50;;;22.00;99.90;;;;;;5017887;28;20249;-81
2023/10/07 02:55:54;;;;;;;5.47;1.45;;;21.90;99.90;;;;;;5028307;28;20299;-81
2023/10/07 02:58:32;;;;;;;5.82;1.38;;;21.80;99.90;;;;;;5036089;28;20201;-83
2023/10/07 03:01:13;;;;;;;4.38;1.58;;;21.80;99.90;;;;;;5035195;28;20197;-83
2023/10/07 03:03:48;;;;;;;5.03;1.65;;;21.90;99.90;;;;;;5027464;28;20197;-84
2023/10/07 03:06:19;;;;;;;2.75;1.30;;;21.90;99.90;;;;;;5034570;28;20228;-83
2023/10/07 03:09:00;;;;;;;2.28;0.90;;;21.90;99.90;;;;;;5033972;28;20236;-84
2023/10/07 03:11:48;;;;;;;4.43;1.05;;;21.80;99.90;;;;;;5034857;28;20201;-83
2023/10/07 03:14:26;;;;;;;2.55;0.90;;;21.60;99.90;;;;;;5014457;28;20276;-83
2023/10/07 03:17:01;;;;;;;2.53;0.90;;;21.40;99.90;;;;;;5014258;28;20229;-83
2023/10/07 03:19:47;;;;;;;3.47;0.85;;;21.40;99.90;;;;;;5014408;28;20295;-83
2023/10/07 03:22:18;;;;;;;2.80;0.90;;;21.60;99.90;;;;;;5032277;28;20205;-84
2023/10/07 03:24:59;;;;;;;3.17;0.90;;;21.90;99.90;;;;;;5034687;28;20220;-84
2023/10/07 03:27:39;;;;;;;3.28;0.68;;;22.10;99.90;;;;;;5037335;28;20206;-83
2023/10/07 03:30:15;;;;;;;2.55;0.80;;;22.30;99.90;;;;;;5032424;28;20206;-84
2023/10/07 03:32:57;;;;;;;2.72;0.80;;;22.30;99.90;;;;;;5014316;28;20204;-82
2023/10/07 03:36:07;;;;;;;4.03;1.20;;;22.20;99.90;;;;;;5031818;28;20256;-82
2023/10/07 03:38:38;;;;;;;3.78;1.30;;;22.40;99.70;;;;;;5028304;28;20265;-83
2023/10/07 03:41:09;;;;;;;4.15;1.20;;;22.70;99.90;;;;;;5034587;28;20952;-82
2023/10/07 03:43:41;;;;;;;4.03;1.00;;;22.90;99.50;;;;;;5034954;28;20209;-82
2023/10/07 03:46:16;;;;;;;4.03;1.38;;;23.00;98.80;;;;;;5030081;28;20210;-83
2023/10/07 03:48:53;;;;;;;4.93;1.20;;;22.90;99.20;;;;;;5015721;28;20269;-83
2023/10/07 03:51:30;;;;;;;5.07;1.45;;;22.90;97.60;;;;;;5015899;28;20288;-82
2023/10/07 03:54:09;;;;;;;4.07;1.27;;;22.70;97.80;;;;;;5015974;28;20221;-83
2023/10/07 03:56:41;;;;;;;6.15;1.48;;;22.50;98.30;;;;;;5030805;28;20229;-83
2023/10/07 03:59:15;;;;;;;6.45;1.33;;;22.40;98.30;;;;;;5036882;28;20215;-83
2023/10/07 04:01:53;;;;;;;2.78;1.05;;;22.50;98.00;;;;;;5037533;28;20205;-83
2023/10/07 04:04:28;;;;;;;4.30;1.35;;;22.50;98.00;;;;;;5022262;28;20624;-83
2023/10/07 04:07:00;;;;;;;5.10;1.10;;;22.40;99.00;;;;;;5016894;28;20198;-82
2023/10/07 04:09:33;;;;;;;2.45;0.80;;;22.20;99.90;;;;;;5026792;28;20309;-82
2023/10/07 04:12:06;;;;;;;2.83;1.13;;;22.30;99.90;;;;;;5034467;28;20215;-81
2023/10/07 04:14:39;;;;;;;4.78;1.30;;;22.20;99.90;;;;;;5038540;28;20248;-82
2023/10/07 04:17:13;;;;;;;3.50;1.10;;;22.10;99.90;;;;;;5038650;28;20213;-83
2023/10/07 04:19:52;;;;;;;5.68;1.15;;;22.20;99.90;;;;;;5036132;28;20188;-82
2023/10/07 04:22:24;;;;;;;4.00;1.10;;;22.30;99.90;;;;;;5019731;28;20221;-82
2023/10/07 04:25:03;;;;;;;2.65;1.15;;;22.00;99.90;;;;;;5020798;28;20624;-83
2023/10/07 04:27:42;;;;;;;4.90;1.33;;;21.90;99.90;;;;;;5023389;28;20197;-82
2023/10/07 04:30:16;;;;;;;4.30;0.95;;;21.80;99.90;;;;;;5028268;28;20209;-82
2023/10/07 04:32:54;;;;;;;4.47;1.10;;;21.70;99.90;;;;;;5035472;28;20203;-82
2023/10/07 04:35:30;;;;;;;2.97;1.00;;;21.60;99.90;;;;;;5042560;28;20252;-82
2023/10/07 04:38:09;;;;;;;5.40;1.23;;;21.70;99.90;;;;;;5022264;28;20213;-82
2023/10/07 04:43:48;;;;;;;7.65;1.60;;;22.10;99.90;;;;;;5014708;28;20276;-82
2023/10/07 04:46:24;;;;;;;5.25;0.98;;;22.30;99.90;;;;;;5018128;28;20205;-82
2023/10/07 04:48:59;;;;;;;4.70;1.10;;;22.20;99.90;;;;;;5020486;28;20202;-82
2023/10/07 04:51:47;;;;;;;3.90;1.00;;;22.20;99.90;;;;;;5022270;28;20288;-82
2023/10/07 04:54:22;;;;;;;7.85;1.23;;;22.40;99.90;;;;;;5035338;28;20233;-83
2023/10/07 04:57:00;;;;;;;4.47;1.13;;;22.00;99.90;;;;;;5033248;28;20201;-84
2023/10/07 04:59:32;;;;;;;5.97;0.90;;;21.80;99.90;;;;;;5032125;28;20718;-83
2023/10/07 05:02:02;;;;;;;4.90;0.90;;;21.70;99.90;;;;;;5032509;28;20201;-84
2023/10/07 05:04:39;;;;;;;6.00;1.00;;;21.50;99.90;;;;;;5014078;28;20201;-84
2023/10/07 05:07:10;;;;;;;3.40;1.17;;;21.70;99.90;;;;;;5014644;28;20419;-84
2023/10/07 05:09:43;;;;;;;2.33;0.73;;;22.00;99.90;;;;;;5028491;28;20225;-82
2023/10/07 05:12:19;;;;;;;3.45;0.95;;;21.70;99.90;;;;;;5032949;28;20239;-83
2023/10/07 05:14:50;;;;;;;5.68;1.35;;;21.50;99.90;;;;;;5036057;28;20263;-83
2023/10/07 05:17:22;;;;;;;4.90;1.20;;;21.80;99.90;;;;;;5052403;28;20200;-83
2023/10/07 05:19:58;;;;;;;3.53;0.73;;;22.10;99.90;;;;;;5052745;28;20201;-84
2023/10/07 05:22:30;;;;;;;4.68;0.90;;;22.40;99.90;;;;;;5052164;28;20188;-84
2023/10/07 05:25:01;;;;;;;4.00;0.73;;;22.70;99.50;;;;;;5052496;28;20211;-83
2023/10/07 05:27:33;;;;;;;3.63;1.20;;;23.20;97.40;;;;;;5032468;28;20632;-83
2023/10/07 05:30:03;;;;;;;4.07;1.13;;;23.40;95.20;;;;;;5012978;28;20202;-83
2023/10/07 05:32:35;;;;;;;2.90;0.90;;;23.50;94.90;;;;;;5031014;28;20205;-84
2023/10/07 05:35:09;;;;;;;1.98;0.60;;;23.70;92.70;;;;;;5038414;28;20305;-83
2023/10/07 05:37:44;;;;;;;2.17;0.80;;;23.90;92.50;;;;;;5043773;28;20409;-82
2023/10/07 05:40:21;;;;;;;2.47;0.70;;;24.10;91.50;;;;;;5038627;28;20203;-83
2023/10/07 05:42:52;;;;;;;2.85;0.75;;;24.00;92.60;;;;;;5034007;28;20201;-84
2023/10/07 05:45:23;;;;;;;1.63;0.65;;;24.20;92.30;;;;;;5029085;28;20198;-83
2023/10/07 05:47:54;;;;;;;2.17;0.68;;;24.20;92.10;;;;;;5016419;28;20198;-84
2023/10/07 05:50:28;;;;;;;3.92;0.70;;;24.20;91.40;;;;;;5015117;28;20209;-83
2023/10/07 05:52:59;;;;;;;4.05;0.90;;;24.30;92.30;;;;;;5015887;28;20210;-83
2023/10/07 05:55:30;;;;;;;4.18;0.70;;;24.30;91.00;;;;;;5022288;28;20221;-83
2023/10/07 05:58:02;;;;;;;2.40;0.70;;;24.00;91.10;;;;;;5037520;28;20209;-83
2023/10/07 06:00:33;;;;;;;2.53;0.70;;;23.90;91.90;;;;;;5039319;28;20239;-83
2023/10/07 06:03:06;;;;;;;4.55;0.82;;;24.10;92.10;;;;;;5027155;28;20194;-84
2023/10/07 06:05:46;;;;;;;4.03;0.98;;;24.40;90.60;;;;;;5024212;28;20208;-84
2023/10/07 06:08:18;;;;;;;4.82;1.08;;;23.80;92.00;;;;;;5039355;28;20267;-83
2023/10/07 06:10:56;;;;;;;5.13;0.80;;;23.80;90.80;;;;;;5034919;28;20201;-82
2023/10/07 06:13:28;;;;;;;4.10;1.08;;;23.50;91.80;;;;;;5030601;28;20300;-82
2023/10/07 06:16:04;;;;;;;3.55;0.90;;;22.90;92.80;;;;;;5039223;28;20280;-83
2023/10/07 06:18:35;;;;;;;3.10;0.90;;;22.90;94.10;;;;;;5028934;28;20205;-82
2023/10/07 06:21:19;;;;;;;3.10;0.80;;;22.70;95.10;;;;;;5028994;28;20221;-83
2023/10/07 06:23:53;;;;;;;5.10;0.90;;;22.60;96.30;;;;;;5040499;28;20201;-82
2023/10/07 06:26:24;;;;;;;5.20;1.00;;;22.60;95.50;;;;;;5039404;28;20208;-83
2023/10/07 06:28:56;;;;;;;3.47;1.17;;;22.80;96.10;;;;;;5041039;28;20280;-83
2023/10/07 06:31:32;;;;;;;3.20;1.45;;;23.10;95.10;;;;;;5039467;28;20193;-82
2023/10/07 06:34:03;;;;;;;7.25;1.55;;;22.60;96.30;;;;;;5040989;28;20232;-83
2023/10/07 06:36:37;;;;;;;6.40;1.85;;;22.10;99.90;;;;;;5037290;28;20201;-83
2023/10/07 06:39:08;;;;;;;3.38;1.23;;;21.60;99.90;;;;;;5044319;28;20204;-82
2023/10/07 06:41:42;;;;;;;4.93;1.30;;;21.60;99.90;;;;;;5046538;28;20177;-83
2023/10/07 06:44:15;;;;;;;4.07;1.17;;;22.20;99.90;;;;;;5050774;28;20205;-82
2023/10/07 06:46:54;;;;;;;5.38;1.45;;;22.30;99.90;;;;;;5027997;28;20190;-81
2023/10/07 06:49:28;;;;;;;5.78;2.40;;;23.00;99.90;;;;;;5020327;28;20270;-83
2023/10/07 06:52:03;;;;;;;4.28;1.02;;;23.60;98.40;;;;;;5024140;28;20205;-82
2023/10/07 06:54:34;;;;;;;5.63;0.95;;;23.80;97.50;;;;;;5035612;28;20220;-83
2023/10/07 06:57:10;;;;;;;4.82;1.17;;;23.40;97.10;;;;;;5037131;28;20297;-84
2023/10/07 06:59:45;;;;;;;5.53;1.10;;;22.90;98.70;;;;;;5037055;28;20312;-83
2023/10/07 07:02:32;;;;;;;6.88;1.25;;;22.30;97.90;;;;;;5038534;28;20569;-83
2023/10/07 07:05:11;;;;;;;4.55;1.02;;;22.10;99.90;;;;;;5037617;28;20197;-83
2023/10/07 07:07:46;;;;;;;5.13;1.30;;;22.20;99.60;;;;;;5021734;28;20224;-83
2023/10/07 07:10:27;;;;;;;3.88;1.00;;;22.30;98.70;;;;;;5034359;28;20198;-84
2023/10/07 07:13:05;;;;;;;2.90;1.00;;;22.20;97.70;;;;;;5018398;28;20198;-84
2023/10/07 07:15:41;;;;;;;1.73;0.85;;;22.20;98.00;;;;;;5017242;28;20600;-85
2023/10/07 07:21:13;;;;;;;5.00;1.30;;;22.10;98.10;;;;;;5018861;28;20205;-84
2023/10/07 07:23:49;;;;;;;6.65;1.77;;;21.80;98.10;;;;;;5020908;28;20288;-84
2023/10/07 07:26:21;;;;;;;4.13;1.45;;;21.60;99.20;;;;;;5039534;28;20266;-83
2023/10/07 07:28:57;;;;;;;5.13;2.50;;;21.20;99.90;;;;;;5018954;28;20216;-84
2023/10/07 07:31:33;;;;;;;3.00;1.50;;;21.00;99.90;;;;;;5031921;28;20192;-82
2023/10/07 07:34:19;;;;;;;5.70;1.73;;;20.60;99.90;;;;;;5056965;28;20274;-82
2023/10/07 07:36:56;;;;;;;3.97;1.35;;;20.30;99.90;;;;;;5056484;28;20607;-80
2023/10/07 07:39:33;;;;;;;3.13;1.10;;;20.10;99.90;;;;;;5040190;28;20665;-83
2023/10/07 07:44:57;;;;;;;1.67;0.93;;;19.80;99.90;;;;;;5028254;28;20212;-82
2023/10/07 07:47:34;;;;;;;1.85;0.70;;;19.60;99.90;;;;;;5023945;28;20220;-83
2023/10/07 07:50:15;;;;;;;6.15;1.30;;;19.50;99.90;;;;;;5025603;28;20268;-80
2023/10/07 07:52:53;;;;;;;5.22;1.40;;;19.40;99.90;;;;;;5041714;28;20586;-81
2023/10/07 07:55:29;;;;;;;1.45;0.82;;;19.30;99.90;;;;;;5038101;28;20763;-82
2023/10/07 07:58:02;;;;;;;2.30;0.80;;;19.20;99.90;;;;;;5033573;28;20259;-83
2023/10/07 08:00:40;;;;;;;1.88;0.80;;;19.20;99.90;;;;;;5034196;28;20209;-83
2023/10/07 08:03:16;;;;;;;3.28;1.10;;;19.10;99.90;;;;;;5016611;28;20224;-83
2023/10/07 08:05:50;;;;;;;2.08;1.10;;;19.00;99.90;;;;;;5007061;28;20223;-83
2023/10/07 08:08:24;;;;;;;3.80;1.13;;;18.90;99.90;;;;;;5046554;28;20217;-83
2023/10/07 08:10:59;;;;;;;2.97;1.08;;;18.80;99.90;;;;;;5041102;28;20212;-83
2023/10/07 08:16:46;;;;;;;4.05;1.48;;;18.60;99.90;;;;;;5045393;28;20263;-81
2023/10/07 08:19:23;;;;;;;4.40;1.40;;;18.60;99.90;;;;;;5033996;28;20201;-83
2023/10/07 08:21:55;;;;;;;5.00;1.48;;;18.50;99.90;;;;;;5037178;28;20208;-81
2023/10/07 08:24:31;;;;;;;3.28;1.25;;;18.50;99.90;;;;;;5037640;28;20205;-82
2023/10/07 08:27:06;;;;;;;3.95;1.63;;;18.40;99.90;;;;;;5035837;28;20204;-83
2023/10/07 08:29:40;;;;;;;4.82;1.60;;;18.40;99.90;;;;;;5036754;28;20786;-82
2023/10/07 08:32:28;;;;;;;3.45;1.20;;;18.30;99.90;;;;;;5024231;28;20232;-81
2023/10/07 08:35:00;;;;;;;5.72;1.40;;;18.20;99.90;;;;;;5034779;28;20585;-82
2023/10/07 08:37:38;;;;;;;3.30;1.20;;;18.30;99.90;;;;;;5040883;28;20205;-81
2023/10/07 08:40:15;;;;;;;5.80;1.50;;;18.20;99.90;;;;;;5042709;28;20208;-82
2023/10/07 08:42:49;;;;;;;4.13;1.52;;;18.20;99.90;;;;;;5053137;28;20224;-82
2023/10/07 08:45:23;;;;;;;6.72;2.10;;;18.20;99.90;;;;;;5033534;28;20263;-83
2023/10/07 08:48:08;;;;;;;4.15;1.90;;;18.20;99.90;;;;;;5041730;28;20193;-83
2023/10/07 08:50:55;;;;;;;5.40;2.10;;;18.20;99.90;;;;;;5027245;28;20205;-82
2023/10/07 08:53:28;;;;;;;7.35;2.53;;;18.20;99.90;;;;;;5022221;28;20284;-82
2023/10/07 08:56:00;;;;;;;5.80;4.05;;;18.20;99.90;;;;;;5019349;28;20237;-82
2023/10/07 08:58:37;;;;;;;11.32;6.43;;;18.20;99.90;;;;;;5025037;28;20201;-82
2023/10/07 09:01:17;;;;;;;6.72;2.80;;;18.10;99.90;;;;;;5032433;28;20185;-83
2023/10/07 09:03:56;;;;;;;3.13;1.58;;;18.10;99.90;;;;;;5014059;28;20202;-83
2023/10/07 09:06:33;;;;;;;4.90;1.83;;;18.20;99.90;;;;;;5013949;28;20200;-82
2023/10/07 09:09:06;;;;;;;3.85;1.85;;;18.20;99.90;;;;;;5013703;28;20297;-83
2023/10/07 09:11:40;;;;;;;5.22;1.77;;;18.20;99.90;;;;;;5024867;28;20571;-82
2023/10/07 09:14:17;;;;;;;7.35;2.28;;;18.20;99.90;;;;;;5033118;28;20201;-83
2023/10/07 09:16:49;;;;;;;5.82;2.00;;;18.10;99.90;;;;;;5021288;28;20225;-84
2023/10/07 09:19:23;;;;;;;5.38;1.67;;;18.10;99.90;;;;;;5028284;28;20197;-83
2023/10/07 09:21:57;;;;;;;5.70;1.70;;;18.10;99.90;;;;;;5032857;28;20285;-84
2023/10/07 09:24:28;;;;;;;5.15;1.80;;;18.00;99.90;;;;;;5031397;28;20243;-82
2023/10/07 09:26:58;;;;;;;5.40;2.35;;;18.00;99.90;;;;;;5020415;28;20293;-82
2023/10/07 09:29:32;;;;;;;5.43;2.10;;;18.00;99.90;;;;;;5023257;28;20722;-84
2023/10/07 09:32:16;;;;;;;5.97;2.40;;;18.00;99.90;;;;;;5033784;28;20200;-83
2023/10/07 09:34:54;;;;;;;5.40;2.13;;;18.00;99.90;;;;;;5038285;28;20259;-84
2023/10/07 09:37:32;;;;;;;4.60;2.13;;;18.00;99.90;;;;;;5038603;28;20220;-84
2023/10/07 09:40:19;;;;;;;3.88;1.20;;;18.00;99.90;;;;;;5018508;28;20189;-83
2023/10/07 09:42:57;;;;;;;4.43;1.55;;;18.00;99.90;;;;;;5019804;28;20205;-83
2023/10/07 09:45:34;;;;;;;2.65;1.65;;;17.90;99.90;;;;;;5019035;28;20186;-83
2023/10/07 09:48:05;;;;;;;5.82;1.77;;;18.00;99.90;;;;;;5018604;28;20214;-83
2023/10/07 09:50:37;;;;;;;3.20;1.48;;;17.90;99.90;;;;;;5039204;28;20261;-84
2023/10/07 09:53:35;;;;;;;2.70;1.30;;;17.90;99.90;;;;;;5037382;28;20228;-84
2023/10/07 09:56:23;;;;;;;4.78;1.63;;;17.90;99.90;;;;;;5038343;28;20229;-83
2023/10/07 09:59:13;;;;;;;5.53;1.50;;;17.90;99.90;;;;;;5039107;28;20201;-83
2023/10/07 10:02:25;;;;;;;3.38;1.60;;;17.90;99.90;;;;;;5020193;28;20685;-84
2023/10/07 10:05:25;;;;;;;2.50;1.30;;;17.90;99.90;;;;;;5030212;28;20197;-83
2023/10/07 10:08:31;;;;;;;3.97;1.95;;;17.80;99.90;;;;;;5045838;28;20228;-84
2023/10/07 10:11:30;;;;;;;7.35;4.03;;;17.80;99.90;;;;;;5052227;28;20181;-83
2023/10/07 10:14:20;;;;;;;8.20;5.47;;;17.70;99.90;;;;;;5053414;28;20659;-82
2023/10/07 10:16:59;;;;;;;5.70;3.50;;;17.70;99.90;;;;;;5048899;28;20255;-83
2023/10/07 10:19:44;;;;;;;4.15;3.03;;;17.70;99.90;;;;;;5030959;28;20197;-79
2023/10/07 10:22:16;;;;;;;6.45;2.60;;;17.70;99.90;;;;;;5031993;28;20549;-84
2023/10/07 10:25:13;;;;;;;6.13;2.72;;;17.70;99.90;;;;;;5047262;28;20197;-80
2023/10/07 10:27:47;;;;;;;3.65;1.58;;;17.80;99.90;;;;;;5045294;28;20193;-84
2023/10/07 10:30:40;;;;;;;3.90;1.38;;;17.80;99.90;;;;;;5053246;28;20215;-83
2023/10/07 10:33:24;;;;;;;3.83;1.40;;;17.70;99.90;;;;;;5047119;28;20201;-82
2023/10/07 10:35:58;;;;;;;3.83;1.00;;;17.70;99.90;;;;;;5011747;28;20290;-84
2023/10/07 10:38:45;;;;;;;4.50;1.00;;;17.70;99.90;;;;;;5020162;28;20190;-83
2023/10/07 10:41:17;;;;;;;3.42;1.25;;;17.70;99.90;;;;;;5033069;28;20175;-82
2023/10/07 10:43:49;;;;;;;6.20;1.40;;;17.60;99.90;;;;;;5031991;28;20206;-82
2023/10/07 10:46:28;;;;;;;2.83;1.10;;;17.70;99.90;;;;;;5030164;28;20202;-83
2023/10/07 10:49:07;;;;;;;2.78;1.00;;;17.60;99.90;;;;;;5018804;28;20206;-82
2023/10/07 10:51:55;;;;;;;1.48;0.80;;;17.60;99.90;;;;;;5009813;28;20213;-82
2023/10/07 10:54:32;;;;;;;4.05;1.20;;;17.60;99.90;;;;;;5003033;28;20768;-85
2023/10/07 10:59:54;;;;;;;2.30;1.00;;;17.60;99.90;;;;;;5027840;28;20685;-83
2023/10/07 11:02:29;;;;;;;2.75;1.05;;;17.60;99.90;;;;;;5026720;28;20229;-84
2023/10/07 11:05:10;;;;;;;2.63;1.10;;;17.60;99.90;;;;;;5030036;28;20198;-84
2023/10/07 11:07:54;;;;;;;4.28;1.00;;;17.60;99.90;;;;;;5027283;28;20285;-79
2023/10/07 11:10:31;;;;;;;3.10;0.90;;;17.60;99.90;;;;;;5028164;28;20253;-84
2023/10/07 11:13:12;;;;;;;4.78;1.10;;;17.60;99.90;;;;;;5013479;28;20178;-83
2023/10/07 11:16:09;;;;;;;3.25;0.80;;;17.60;99.90;;;;;;5028038;28;20228;-83
2023/10/07 11:18:45;;;;;;;2.50;1.00;;;17.60;99.90;;;;;;5020753;28;20219;-83
2023/10/07 11:21:21;;;;;;;3.83;1.15;;;17.60;99.90;;;;;;5010629;28;20261;-81
2023/10/07 11:23:53;;;;;;;4.10;1.05;;;17.50;99.90;;;;;;5026044;28;20268;-83
2023/10/07 11:26:26;;;;;;;4.65;1.23;;;17.60;99.90;;;;;;5023428;28;20209;-83
2023/10/07 11:28:58;;;;;;;2.92;1.10;;;17.60;99.90;;;;;;5007630;28;20214;-84
2023/10/07 11:31:41;;;;;;;3.40;1.25;;;17.50;99.90;;;;;;5010324;28;20294;-85
2023/10/07 11:34:28;;;;;;;4.13;0.98;;;17.40;99.90;;;;;;5019302;28;20221;-83
2023/10/07 11:37:13;;;;;;;4.88;1.10;;;17.50;99.90;;;;;;5031735;28;20229;-83
2023/10/07 11:42:40;;;;;;;3.15;0.90;;;17.40;99.90;;;;;;5025762;28;20252;-82
2023/10/07 11:45:22;;;;;;;3.67;1.20;;;17.30;99.90;;;;;;5024401;28;20224;-83
2023/10/07 11:47:57;;;;;;;3.55;1.10;;;17.30;99.90;;;;;;5022611;28;20201;-81
2023/10/07 11:50:29;;;;;;;2.35;0.90;;;17.30;99.90;;;;;;5035633;28;20205;-82
2023/10/07 11:55:57;;;;;;;3.17;1.23;;;17.30;99.90;;;;;;5040874;28;20217;-81
2023/10/07 11:58:32;;;;;;;2.90;0.80;;;17.40;99.90;;;;;;5042379;28;20197;-82
2023/10/07 12:01:09;;;;;;;2.50;1.08;;;17.40;99.90;;;;;;5027875;28;20264;-82
2023/10/07 12:03:45;;;;;;;1.08;0.90;;;17.30;99.90;;;;;;5021858;28;20229;-81
2023/10/07 12:06:26;;;;;;;2.40;1.10;;;17.40;99.90;;;;;;5002020;28;20627;-83
2023/10/07 12:09:06;;;;;;;4.97;1.10;;;17.40;99.90;;;;;;5018061;28;20225;-82
2023/10/07 12:11:37;;;;;;;6.07;1.63;;;17.40;99.90;;;;;;5018529;28;20273;-83
2023/10/07 12:14:08;;;;;;;3.20;1.15;;;17.30;99.90;;;;;;5037399;28;20267;-83
2023/10/07 12:16:50;;;;;;;7.63;1.40;;;17.20;99.90;;;;;;5032907;28;20240;-83
2023/10/07 12:19:22;;;;;;;5.13;1.50;;;17.20;99.90;;;;;;5030404;28;20189;-83
2023/10/07 12:21:57;;;;;;;4.28;1.40;;;17.20;99.90;;;;;;5040615;28;20252;-83
2023/10/07 12:24:29;;;;;;;6.07;1.30;;;17.20;99.90;;;;;;5037298;28;20228;-83
2023/10/07 12:27:00;;;;;;;4.80;1.20;;;17.20;99.90;;;;;;5022043;28;20194;-82
2023/10/07 12:29:31;;;;;;;3.45;1.48;;;17.00;99.90;;;;;;5027649;28;20193;-84
2023/10/07 12:32:02;;;;;;;5.20;1.38;;;17.00;99.90;;;;;;5036114;28;20264;-81
2023/10/07 12:34:35;;;;;;;4.20;1.20;;;17.10;99.90;;;;;;5019597;28;20625;-83
2023/10/07 12:37:05;;;;;;;3.78;1.23;;;17.20;99.90;;;;;;5038587;28;20225;-81
2023/10/07 12:39:41;;;;;;;4.95;1.40;;;17.10;99.90;;;;;;5025260;28;20209;-83
2023/10/07 12:42:12;;;;;;;4.95;1.60;;;17.10;99.90;;;;;;5018526;28;20621;-83
2023/10/07 12:44:43;;;;;;;3.15;1.45;;;17.00;99.90;;;;;;5021613;28;20213;-83
2023/10/07 12:47:16;;;;;;;5.20;1.83;;;17.00;99.90;;;;;;5018626;28;20216;-83
2023/10/07 12:49:49;;;;;;;5.28;2.28;;;17.00;99.90;;;;;;5024397;28;20201;-83
2023/10/07 12:52:20;;;;;;;3.22;1.40;;;16.80;99.90;;;;;;5037143;28;20205;-84
2023/10/07 12:54:55;;;;;;;6.15;2.08;;;16.80;99.90;;;;;;5032816;28;20661;-81
2023/10/07 12:57:28;;;;;;;4.90;1.55;;;16.80;99.90;;;;;;5017226;28;20216;-81
2023/10/07 12:59:59;;;;;;;8.40;2.22;;;16.80;99.90;;;;;;5017328;28;20205;-81
2023/10/07 13:02:29;;;;;;;6.13;1.73;;;16.60;99.90;;;;;;5017638;28;20684;-83
2023/10/07 13:05:00;;;;;;;4.93;1.80;;;16.60;99.90;;;;;;5020264;28;20209;-82
2023/10/07 13:07:31;;;;;;;4.25;1.60;;;16.60;99.90;;;;;;5024486;28;20225;-81
2023/10/07 13:10:04;;;;;;;4.65;1.60;;;16.60;99.90;;;;;;5036334;28;20201;-83
2023/10/07 13:12:35;;;;;;;6.10;1.70;;;16.70;99.90;;;;;;5035385;28;20555;-82
2023/10/07 13:15:14;;;;;;;4.15;1.70;;;16.70;99.90;;;;;;5026279;28;20201;-83
2023/10/07 13:17:45;;;;;;;4.07;1.85;;;16.70;99.90;;;;;;5028481;28;20219;-82
2023/10/07 13:20:19;;;;;;;4.90;2.10;;;16.70;99.90;;;;;;5048125;28;20215;-83
2023/10/07 13:22:52;;;;;;;4.03;1.75;;;16.70;99.90;;;;;;5026180;28;20196;-83
2023/10/07 13:25:26;;;;;;;6.18;1.90;;;16.60;99.90;;;;;;5033745;28;20189;-82
2023/10/07 13:27:57;;;;;;;4.63;2.03;;;16.60;99.90;;;;;;5034591;28;20587;-83
2023/10/07 13:30:30;;;;;;;6.65;2.15;;;16.50;99.90;;;;;;5035793;28;20185;-82
2023/10/07 13:33:01;;;;;;;6.10;2.33;;;16.50;99.90;;;;;;5014835;28;20233;-82
2023/10/07 13:35:32;;;;;;;5.35;2.08;;;16.50;99.90;;;;;;5014353;28;20288;-82
2023/10/07 13:38:03;;;;;;;6.53;1.92;;;16.60;99.90;;;;;;5012821;28;20248;-82
2023/10/07 13:40:38;;;;;;;3.55;1.90;;;16.60;99.90;;;;;;5024462;28;20193;-82
2023/10/07 13:43:10;;;;;;;7.40;2.13;;;16.60;99.90;;;;;;5017964;28;20276;-83
2023/10/07 13:45:41;;;;;;;6.68;2.28;;;16.60;99.90;;;;;;5025867;28;20622;-82
2023/10/07 13:48:11;;;;;;;5.53;1.90;;;16.60;99.90;;;;;;5024315;28;20197;-80
2023/10/07 13:50:42;;;;;;;4.80;2.20;;;16.60;99.90;;;;;;5018256;28;20190;-82
2023/10/07 13:53:15;;;;;;;6.45;2.00;;;16.50;99.90;;;;;;5026164;28;20196;-83
2023/10/07 13:55:57;;;;;;;7.40;2.35;;;16.50;99.90;;;;;;5029056;28;20236;-83